createdAt,value
2018-05-01T00:01:25.330Z,86.76
2018-05-01T00:03:52.894Z,86.71
2018-05-01T00:06:20.631Z,86.92
2018-05-01T00:08:48.227Z,87.20
2018-05-01T00:11:15.902Z,87.43
2018-05-01T00:13:43.473Z,87.58
2018-05-01T00:16:11.017Z,87.09
2018-05-01T00:18:38.687Z,87.70
2018-05-01T00:21:06.429Z,87.99
2018-05-01T00:23:33.991Z,87.68
2018-05-01T00:26:01.754Z,87.70
2018-05-01T00:28:29.304Z,88.20
2018-05-01T00:30:56.906Z,88.76
2018-05-01T00:33:24.601Z,89.24
2018-05-01T00:35:52.186Z,88.29
2018-05-01T00:38:19.730Z,88.64
2018-05-01T00:40:47.342Z,88.74
2018-05-01T00:43:14.980Z,88.38
2018-05-01T00:45:42.751Z,88.40
2018-05-01T00:48:10.321Z,88.46
2018-05-01T00:50:37.878Z,88.77
2018-05-01T00:53:05.423Z,88.55
2018-05-01T00:55:33.222Z,88.28
2018-05-01T00:58:00.830Z,87.94
2018-05-01T01:00:28.531Z,88.32
2018-05-01T01:02:56.077Z,88.65
2018-05-01T01:05:23.629Z,88.23
2018-05-01T01:07:51.782Z,88.24
2018-05-01T01:10:19.577Z,88.16
2018-05-01T01:12:47.121Z,88.04
2018-05-01T01:15:14.685Z,87.91
2018-05-01T01:17:42.299Z,88.29
2018-05-01T01:20:09.963Z,88.27
2018-05-01T01:22:37.503Z,87.54
2018-05-01T01:25:05.044Z,87.26
2018-05-01T01:27:32.620Z,86.78
2018-05-01T01:30:00.273Z,87.59
2018-05-01T01:32:27.900Z,87.23
2018-05-01T01:34:55.708Z,87.28
2018-05-01T01:37:22.770Z,86.08
2018-05-01T01:39:49.835Z,86.72
2018-05-01T01:42:16.837Z,86.43
2018-05-01T01:44:43.883Z,86.14
2018-05-01T01:47:11.119Z,85.35
2018-05-01T01:49:38.113Z,85.83
2018-05-01T01:52:05.395Z,86.47
2018-05-01T01:54:32.653Z,87.36
2018-05-01T01:56:59.708Z,87.48
2018-05-01T01:59:26.746Z,87.75
2018-05-01T02:01:54.198Z,88.38
2018-05-01T02:04:21.207Z,88.33
2018-05-01T02:06:48.245Z,89.47
2018-05-01T02:09:15.617Z,89.55
2018-05-01T02:11:42.622Z,89.48
2018-05-01T02:14:09.946Z,89.17
2018-05-01T02:16:37.022Z,89.01
2018-05-01T02:19:04.025Z,89.29
2018-05-01T02:21:31.023Z,89.58
2018-05-01T02:23:58.059Z,90.08
2018-05-01T02:26:25.081Z,89.90
2018-05-01T02:28:52.346Z,90.22
2018-05-01T02:31:19.364Z,91.15
2018-05-01T02:33:46.707Z,91.33
2018-05-01T02:36:13.711Z,91.52
2018-05-01T02:38:40.951Z,91.92
2018-05-01T02:41:08.109Z,92.05
2018-05-01T02:43:35.144Z,92.28
2018-05-01T02:46:02.161Z,92.03
2018-05-01T02:48:29.498Z,92.26
2018-05-01T02:50:56.496Z,91.96
2018-05-01T02:53:23.493Z,92.42
2018-05-01T02:55:50.528Z,92.99
2018-05-01T02:58:17.551Z,92.79
2018-05-01T03:00:44.613Z,92.99
2018-05-01T03:03:11.774Z,92.55
2018-05-01T03:05:38.782Z,91.50
2018-05-01T03:08:05.811Z,91.55
2018-05-01T03:10:32.842Z,91.48
2018-05-01T03:12:59.858Z,91.97
2018-05-01T03:15:26.896Z,91.64
2018-05-01T03:17:53.929Z,92.17
2018-05-01T03:20:20.937Z,92.25
2018-05-01T03:22:47.974Z,92.31
2018-05-01T03:25:15.078Z,92.10
2018-05-01T03:27:42.048Z,91.86
2018-05-01T03:30:09.106Z,92.12
2018-05-01T03:32:36.123Z,92.44
2018-05-01T03:35:03.126Z,92.55
2018-05-01T03:37:30.341Z,92.43
2018-05-01T03:39:57.358Z,92.46
2018-05-01T03:42:24.369Z,92.71
2018-05-01T03:44:51.398Z,92.36
2018-05-01T03:47:18.405Z,92.45
2018-05-01T03:49:45.463Z,92.00
2018-05-01T03:52:12.471Z,92.28
2018-05-01T03:54:39.476Z,92.57
2018-05-01T03:57:06.520Z,91.95
2018-05-01T03:59:33.651Z,92.14
2018-05-01T04:02:00.655Z,91.87
2018-05-01T04:04:27.990Z,92.18
2018-05-01T04:06:55.010Z,92.14
2018-05-01T04:09:22.256Z,92.76
2018-05-01T04:11:49.285Z,92.80
2018-05-01T04:14:16.300Z,93.16
2018-05-01T04:16:43.336Z,93.34
2018-05-01T04:19:10.836Z,93.29
2018-05-01T04:21:37.847Z,93.38
2018-05-01T04:24:05.059Z,93.17
2018-05-01T04:26:32.223Z,93.77
2018-05-01T04:28:59.240Z,93.36
2018-05-01T04:31:26.243Z,93.89
2018-05-01T04:33:53.269Z,94.17
2018-05-01T04:36:20.274Z,94.20
2018-05-01T04:38:47.540Z,94.66
2018-05-01T04:41:14.608Z,94.64
2018-05-01T04:43:41.618Z,94.55
2018-05-01T04:46:08.671Z,95.08
2018-05-01T04:48:35.666Z,95.24
2018-05-01T04:51:02.670Z,95.50
2018-05-01T04:53:29.709Z,95.61
2018-05-01T04:55:56.718Z,95.50
2018-05-01T04:58:23.869Z,95.60
2018-05-01T05:00:50.880Z,95.87
2018-05-01T05:03:17.883Z,95.69
2018-05-01T05:05:45.021Z,95.82
2018-05-01T05:08:12.031Z,96.09
2018-05-01T05:10:39.038Z,95.95
2018-05-01T05:13:06.317Z,96.16
2018-05-01T05:15:33.574Z,96.23
2018-05-01T05:18:00.631Z,96.12
2018-05-01T05:20:27.630Z,96.18
2018-05-01T05:22:54.648Z,96.63
2018-05-01T05:25:21.715Z,96.60
2018-05-01T05:27:49.013Z,96.79
2018-05-01T05:30:16.507Z,96.57
2018-05-01T05:32:43.515Z,96.73
2018-05-01T05:35:10.511Z,96.47
2018-05-01T05:37:37.554Z,96.39
2018-05-01T05:40:04.906Z,96.48
2018-05-01T05:42:31.933Z,96.49
2018-05-01T05:44:59.355Z,96.48
2018-05-01T05:47:26.358Z,96.54
2018-05-01T05:49:53.380Z,96.56
2018-05-01T05:52:20.416Z,96.74
2018-05-01T05:54:47.428Z,96.70
2018-05-01T05:57:14.578Z,96.58
2018-05-01T05:59:41.619Z,96.64
2018-05-01T06:02:08.621Z,96.51
2018-05-01T06:04:35.646Z,96.33
2018-05-01T06:07:02.647Z,96.19
2018-05-01T06:09:29.696Z,95.78
2018-05-01T06:11:56.747Z,95.39
2018-05-01T06:14:23.781Z,95.63
2018-05-01T06:16:50.818Z,95.36
2018-05-01T06:19:17.831Z,95.33
2018-05-01T06:21:45.301Z,95.44
2018-05-01T06:24:12.296Z,95.22
2018-05-01T06:26:39.544Z,94.96
2018-05-01T06:29:06.579Z,95.04
2018-05-01T06:31:33.579Z,95.23
2018-05-01T06:34:00.875Z,95.13
2018-05-01T06:36:27.883Z,95.19
2018-05-01T06:38:54.879Z,95.12
2018-05-01T06:41:21.990Z,95.07
2018-05-01T06:43:49.088Z,94.60
2018-05-01T06:46:16.097Z,94.78
2018-05-01T06:48:43.131Z,94.03
2018-05-01T06:51:10.419Z,94.31
2018-05-01T06:53:37.431Z,94.66
2018-05-01T06:56:04.686Z,94.63
2018-05-01T06:58:31.724Z,94.10
2018-05-01T07:00:58.729Z,94.34
2018-05-01T07:03:25.881Z,94.19
2018-05-01T07:05:52.906Z,94.12
2018-05-01T07:08:19.927Z,93.48
2018-05-01T07:10:47.228Z,94.19
2018-05-01T07:13:14.251Z,94.21
2018-05-01T07:15:41.266Z,94.14
2018-05-01T07:18:08.304Z,93.39
2018-05-01T07:20:35.380Z,93.10
2018-05-01T07:23:02.396Z,92.87
2018-05-01T07:25:29.403Z,93.16
2018-05-01T07:27:56.438Z,92.94
2018-05-01T07:30:23.872Z,93.67
2018-05-01T07:32:50.880Z,93.47
2018-05-01T07:35:17.882Z,92.44
2018-05-01T07:37:45.159Z,93.24
2018-05-01T07:40:12.176Z,92.96
2018-05-01T07:42:39.397Z,92.73
2018-05-01T07:45:06.419Z,93.02
2018-05-01T07:47:33.426Z,93.57
2018-05-01T07:50:00.584Z,93.24
2018-05-01T07:52:27.596Z,93.03
2018-05-01T07:54:54.637Z,93.15
2018-05-01T07:57:21.683Z,93.45
2018-05-01T07:59:48.848Z,93.51
2018-05-01T08:02:15.866Z,93.42
2018-05-01T08:04:42.870Z,92.83
2018-05-01T08:07:09.902Z,92.98
2018-05-01T08:09:37.446Z,93.78
2018-05-01T08:12:04.513Z,93.45
2018-05-01T08:14:31.809Z,93.67
2018-05-01T08:16:59.159Z,93.85
2018-05-01T08:19:26.175Z,93.65
2018-05-01T08:21:53.198Z,94.00
2018-05-01T08:24:20.533Z,93.28
2018-05-01T08:26:47.543Z,93.09
2018-05-01T08:31:48.352Z,93.93
2018-05-01T08:34:15.422Z,94.07
2018-05-01T08:36:42.436Z,93.89
2018-05-01T08:39:09.456Z,93.80
2018-05-01T08:41:36.744Z,94.27
2018-05-01T08:44:03.759Z,93.92
2018-05-01T08:46:31.079Z,93.66
2018-05-01T08:48:58.217Z,93.40
2018-05-01T08:51:25.463Z,93.95
2018-05-01T08:53:52.485Z,93.85
2018-05-01T08:56:19.514Z,94.19
2018-05-01T08:58:46.552Z,94.74
2018-05-01T09:01:13.950Z,94.06
2018-05-01T09:03:40.954Z,94.28
2018-05-01T09:06:07.974Z,93.78
2018-05-01T09:08:35.144Z,94.17
2018-05-01T09:11:02.177Z,94.51
2018-05-01T09:13:30.195Z,94.39
2018-05-01T09:15:57.630Z,93.98
2018-05-01T09:18:24.857Z,94.55
2018-05-01T09:20:51.740Z,93.90
2018-05-01T09:23:18.802Z,93.89
2018-05-01T09:25:46.708Z,94.30
2018-05-01T09:28:14.010Z,94.42
2018-05-01T09:30:41.029Z,93.93
2018-05-01T09:33:08.071Z,94.11
2018-05-01T09:35:35.531Z,94.01
2018-05-01T09:38:02.541Z,94.31
2018-05-01T09:40:29.571Z,93.80
2018-05-01T09:42:56.853Z,94.41
2018-05-01T09:45:23.863Z,93.63
2018-05-01T09:47:50.933Z,93.38
2018-05-01T09:50:17.943Z,93.31
2018-05-01T09:52:45.503Z,93.34
2018-05-01T09:55:13.392Z,92.62
2018-05-01T09:57:41.243Z,92.14
2018-05-01T10:00:08.827Z,92.04
2018-05-01T10:02:36.431Z,92.31
2018-05-01T10:05:03.997Z,92.72
2018-05-01T10:07:31.954Z,92.20
2018-05-01T10:09:59.569Z,91.82
2018-05-01T10:12:27.118Z,92.78
2018-05-01T10:14:54.844Z,92.82
2018-05-01T10:17:22.406Z,91.30
2018-05-01T10:19:50.196Z,90.50
2018-05-01T10:22:17.810Z,91.16
2018-05-01T10:24:45.613Z,89.42
2018-05-01T10:27:13.217Z,90.09
2018-05-01T10:29:41.188Z,90.71
2018-05-01T10:32:08.741Z,90.36
2018-05-01T10:34:36.305Z,90.57
2018-05-01T10:37:03.906Z,90.65
2018-05-01T10:39:32.048Z,91.08
2018-05-01T10:42:01.038Z,92.30
2018-05-01T10:44:28.892Z,91.47
2018-05-01T10:46:56.432Z,91.28
2018-05-01T10:49:24.035Z,91.37
2018-05-01T10:51:51.946Z,91.02
2018-05-01T10:54:19.957Z,91.55
2018-05-01T10:56:47.506Z,90.63
2018-05-01T10:59:15.050Z,90.07
2018-05-01T11:01:42.715Z,90.22
2018-05-01T11:04:10.400Z,90.02
2018-05-01T11:06:38.318Z,89.18
2018-05-01T11:09:06.131Z,90.55
2018-05-01T11:11:33.773Z,90.01
2018-05-01T11:14:01.320Z,90.33
2018-05-01T11:16:28.972Z,89.71
2018-05-01T11:18:56.528Z,90.39
2018-05-01T11:21:24.193Z,90.92
2018-05-01T11:23:51.785Z,89.87
2018-05-01T11:26:19.699Z,90.52
2018-05-01T11:28:47.283Z,90.68
2018-05-01T11:31:14.865Z,90.60
2018-05-01T11:33:42.485Z,90.33
2018-05-01T11:36:10.083Z,91.21
2018-05-01T11:38:37.659Z,90.92
2018-05-01T11:41:05.236Z,92.19
2018-05-01T11:43:32.939Z,87.92
2018-05-01T11:46:00.738Z,86.19
2018-05-01T11:48:28.315Z,85.14
2018-05-01T11:50:59.411Z,87.20
2018-05-01T11:53:26.968Z,86.10
2018-05-01T11:55:54.552Z,87.71
2018-05-01T11:58:22.128Z,89.22
2018-05-01T12:00:49.686Z,87.97
2018-05-01T12:03:17.301Z,85.89
2018-05-01T12:05:44.855Z,86.93
2018-05-01T12:08:12.616Z,86.33
2018-05-01T12:10:40.493Z,86.47
2018-05-01T12:13:07.982Z,84.66
2018-05-01T12:15:35.672Z,85.29
2018-05-01T12:18:03.339Z,82.42
2018-05-01T12:20:30.953Z,79.96
2018-05-01T12:22:58.535Z,80.59
2018-05-01T12:25:26.444Z,78.98
2018-05-01T12:27:54.101Z,77.12
2018-05-01T12:30:21.661Z,80.20
2018-05-01T12:32:49.264Z,79.19
2018-05-01T12:35:16.882Z,78.51
2018-05-01T12:37:44.508Z,78.59
2018-05-01T12:40:12.271Z,79.46
2018-05-01T12:42:39.888Z,76.68
2018-05-01T12:45:07.504Z,76.60
2018-05-01T12:47:35.392Z,74.18
2018-05-01T12:50:02.975Z,73.31
2018-05-01T12:52:30.530Z,74.67
2018-05-01T12:54:58.129Z,71.43
2018-05-01T12:57:25.694Z,71.51
2018-05-01T12:59:53.318Z,72.16
2018-05-01T13:02:20.866Z,74.75
2018-05-01T13:04:48.427Z,70.35
2018-05-01T13:07:16.012Z,71.92
2018-05-01T13:09:43.570Z,70.39
2018-05-01T13:12:11.163Z,67.87
2018-05-01T13:14:38.815Z,68.50
2018-05-01T13:17:06.385Z,67.75
2018-05-01T13:19:33.934Z,67.39
2018-05-01T13:22:02.623Z,68.61
2018-05-01T13:24:30.236Z,69.33
2018-05-01T13:26:57.816Z,70.37
2018-05-01T13:29:25.405Z,72.48
2018-05-01T13:31:52.974Z,68.57
2018-05-01T13:34:20.567Z,66.49
2018-05-01T13:36:48.136Z,65.00
2018-05-01T13:39:15.750Z,63.04
2018-05-01T13:41:43.316Z,62.28
2018-05-01T13:44:11.108Z,63.52
2018-05-01T13:46:39.094Z,62.65
2018-05-01T13:49:06.665Z,61.60
2018-05-01T13:51:34.535Z,62.39
2018-05-01T13:54:02.119Z,63.58
2018-05-01T13:56:29.920Z,63.88
2018-05-01T13:58:57.575Z,64.01
2018-05-01T14:01:25.175Z,59.95
2018-05-01T14:03:53.152Z,62.70
2018-05-01T14:06:20.806Z,63.18
2018-05-01T14:08:48.619Z,61.40
2018-05-01T14:11:16.303Z,62.21
2018-05-01T14:13:44.302Z,59.64
2018-05-01T14:16:11.910Z,58.58
2018-05-01T14:18:39.453Z,57.43
2018-05-01T14:21:07.104Z,58.59
2018-05-01T14:23:34.886Z,56.19
2018-05-01T14:26:02.475Z,56.43
2018-05-01T14:28:30.093Z,57.81
2018-05-01T14:30:57.667Z,58.50
2018-05-01T14:33:25.481Z,60.58
2018-05-01T14:35:53.201Z,60.54
2018-05-01T14:38:20.834Z,58.92
2018-05-01T14:40:48.463Z,57.95
2018-05-01T14:43:16.028Z,60.89
2018-05-01T14:45:43.671Z,61.00
2018-05-01T14:48:11.251Z,59.67
2018-05-01T14:50:38.796Z,60.61
2018-05-01T14:53:06.812Z,60.20
2018-05-01T14:55:34.494Z,55.15
2018-05-01T14:58:02.042Z,55.92
2018-05-01T15:00:29.620Z,54.73
2018-05-01T15:03:04.307Z,53.83
2018-05-01T15:05:32.070Z,55.45
2018-05-01T15:07:59.619Z,55.83
2018-05-01T15:10:27.253Z,54.44
2018-05-01T15:12:54.836Z,54.96
2018-05-01T15:15:22.408Z,56.99
2018-05-01T15:17:50.327Z,57.27
2018-05-01T15:20:18.126Z,54.66
2018-05-01T15:22:45.688Z,54.45
2018-05-01T15:25:13.269Z,56.08
2018-05-01T15:27:40.900Z,55.29
2018-05-01T15:30:08.636Z,54.52
2018-05-01T15:32:36.193Z,55.21
2018-05-01T15:35:03.884Z,54.58
2018-05-01T15:37:31.670Z,54.79
2018-05-01T15:39:59.319Z,54.70
2018-05-01T15:42:26.901Z,56.82
2018-05-01T15:44:54.941Z,56.16
2018-05-01T15:47:22.492Z,57.87
2018-05-01T15:49:50.090Z,56.98
2018-05-01T15:52:17.677Z,56.56
2018-05-01T15:54:45.256Z,54.78
2018-05-01T15:57:13.067Z,56.57
2018-05-01T15:59:40.617Z,54.05
2018-05-01T16:02:08.619Z,51.72
2018-05-01T16:04:36.396Z,51.67
2018-05-01T16:07:03.965Z,55.16
2018-05-01T16:09:31.648Z,54.62
2018-05-01T16:11:59.220Z,54.67
2018-05-01T16:14:26.891Z,54.33
2018-05-01T16:16:54.756Z,54.33
2018-05-01T16:19:22.415Z,55.07
2018-05-01T16:21:50.100Z,54.05
2018-05-01T16:24:17.651Z,52.32
2018-05-01T16:26:45.284Z,54.53
2018-05-01T16:29:12.850Z,54.90
2018-05-01T16:31:40.411Z,53.86
2018-05-01T16:34:08.712Z,53.53
2018-05-01T16:36:36.250Z,52.58
2018-05-01T16:39:03.981Z,53.98
2018-05-01T16:41:31.808Z,54.14
2018-05-01T16:43:59.372Z,54.82
2018-05-01T16:46:27.341Z,54.89
2018-05-01T16:48:54.892Z,54.64
2018-05-01T16:51:22.525Z,54.40
2018-05-01T16:53:50.148Z,54.83
2018-05-01T16:56:17.726Z,56.31
2018-05-01T16:58:45.543Z,54.58
2018-05-01T17:01:13.388Z,54.68
2018-05-01T17:03:41.039Z,54.35
2018-05-01T17:06:08.594Z,55.14
2018-05-01T17:08:36.179Z,54.61
2018-05-01T17:11:03.775Z,54.45
2018-05-01T17:13:31.323Z,55.32
2018-05-01T17:15:59.185Z,56.10
2018-05-01T17:18:27.179Z,55.30
2018-05-01T17:20:54.799Z,55.53
2018-05-01T17:23:22.347Z,55.40
2018-05-01T17:25:50.362Z,55.72
2018-05-01T17:28:17.911Z,54.10
2018-05-01T17:30:45.530Z,54.55
2018-05-01T17:33:13.171Z,55.23
2018-05-01T17:35:40.939Z,54.34
2018-05-01T17:38:08.734Z,55.22
2018-05-01T17:40:36.281Z,55.49
2018-05-01T17:43:04.170Z,54.96
2018-05-01T17:45:31.754Z,55.81
2018-05-01T17:47:59.349Z,56.20
2018-05-01T17:50:27.200Z,56.48
2018-05-01T17:52:54.783Z,56.39
2018-05-01T17:55:22.356Z,56.78
2018-05-01T17:57:50.206Z,58.24
2018-05-01T18:00:17.748Z,56.79
2018-05-01T18:02:45.327Z,57.34
2018-05-01T18:05:13.224Z,57.28
2018-05-01T18:07:40.785Z,58.43
2018-05-01T18:10:08.382Z,58.84
2018-05-01T18:12:36.191Z,59.18
2018-05-01T18:15:03.754Z,59.43
2018-05-01T18:17:31.740Z,59.45
2018-05-01T18:19:59.294Z,59.78
2018-05-01T18:22:27.096Z,57.07
2018-05-01T18:24:54.671Z,57.51
2018-05-01T18:27:22.228Z,57.11
2018-05-01T18:29:49.985Z,57.75
2018-05-01T18:32:17.539Z,56.92
2018-05-01T18:34:45.164Z,56.75
2018-05-01T18:37:12.804Z,56.84
2018-05-01T18:39:40.432Z,57.11
2018-05-01T18:42:08.211Z,57.62
2018-05-01T18:44:35.798Z,58.17
2018-05-01T18:47:03.432Z,58.46
2018-05-01T18:49:30.993Z,58.63
2018-05-01T18:51:58.791Z,58.93
2018-05-01T18:54:26.431Z,59.21
2018-05-01T18:56:53.977Z,59.36
2018-05-01T18:59:21.846Z,59.64
2018-05-01T19:01:49.564Z,60.07
2018-05-01T19:04:17.235Z,60.44
2018-05-01T19:06:45.001Z,60.93
2018-05-01T19:09:12.614Z,61.59
2018-05-01T19:11:40.191Z,62.06
2018-05-01T19:14:07.767Z,62.02
2018-05-01T19:16:35.365Z,62.32
2018-05-01T19:19:02.926Z,62.83
2018-05-01T19:21:30.865Z,62.86
2018-05-01T19:23:58.568Z,63.02
2018-05-01T19:26:26.119Z,63.17
2018-05-01T19:28:53.730Z,63.25
2018-05-01T19:31:21.554Z,63.26
2018-05-01T19:33:49.123Z,63.52
2018-05-01T19:36:16.729Z,64.02
2018-05-01T19:38:44.279Z,64.53
2018-05-01T19:41:11.874Z,64.74
2018-05-01T19:43:39.479Z,65.00
2018-05-01T19:46:07.467Z,65.30
2018-05-01T19:48:35.103Z,65.55
2018-05-01T19:51:03.116Z,65.70
2018-05-01T19:53:30.748Z,65.66
2018-05-01T19:55:58.563Z,65.71
2018-05-01T19:58:26.189Z,66.06
2018-05-01T20:00:54.000Z,66.17
2018-05-01T20:03:21.772Z,66.20
2018-05-01T20:05:49.275Z,66.27
2018-05-01T20:08:16.824Z,66.43
2018-05-01T20:10:44.411Z,66.64
2018-05-01T20:13:11.977Z,66.93
2018-05-01T20:15:39.626Z,67.34
2018-05-01T20:18:07.491Z,67.37
2018-05-01T20:20:35.381Z,67.32
2018-05-01T20:23:02.994Z,67.27
2018-05-01T20:25:30.700Z,67.42
2018-05-01T20:27:58.262Z,67.70
2018-05-01T20:30:25.870Z,67.89
2018-05-01T20:32:53.442Z,68.06
2018-05-01T20:35:21.000Z,68.00
2018-05-01T20:37:48.832Z,68.13
2018-05-01T20:40:16.432Z,68.35
2018-05-01T20:42:43.981Z,68.49
2018-05-01T20:45:11.799Z,68.65
2018-05-01T20:47:39.417Z,69.02
2018-05-01T20:50:07.037Z,69.23
2018-05-01T20:52:34.674Z,69.28
2018-05-01T20:55:02.289Z,69.49
2018-05-01T20:57:30.351Z,69.30
2018-05-01T20:59:58.004Z,68.96
2018-05-01T21:02:25.543Z,68.52
2018-05-01T21:04:53.123Z,67.78
2018-05-01T21:07:20.918Z,67.84
2018-05-01T21:09:48.931Z,67.93
2018-05-01T21:12:16.481Z,67.86
2018-05-01T21:14:44.269Z,68.02
2018-05-01T21:17:11.872Z,68.12
2018-05-01T21:19:39.411Z,68.23
2018-05-01T21:22:07.034Z,68.64
2018-05-01T21:24:34.885Z,68.42
2018-05-01T21:27:02.578Z,68.23
2018-05-01T21:29:30.215Z,68.26
2018-05-01T21:31:57.897Z,68.39
2018-05-01T21:34:25.879Z,68.55
2018-05-01T21:36:53.432Z,68.72
2018-05-01T21:39:21.041Z,68.37
2018-05-01T21:41:49.270Z,67.66
2018-05-01T21:44:16.922Z,67.28
2018-05-01T21:46:44.583Z,66.95
2018-05-01T21:49:12.365Z,66.87
2018-05-01T21:51:39.970Z,67.23
2018-05-01T21:54:07.774Z,67.29
2018-05-01T21:56:35.391Z,67.26
2018-05-01T21:59:03.063Z,67.13
2018-05-01T22:01:31.174Z,67.08
2018-05-01T22:03:58.953Z,66.90
2018-05-01T22:06:26.548Z,66.74
2018-05-01T22:08:54.179Z,66.73
2018-05-01T22:11:21.721Z,66.79
2018-05-01T22:13:49.386Z,66.50
2018-05-01T22:16:17.326Z,66.04
2018-05-01T22:18:45.095Z,66.11
2018-05-01T22:21:12.898Z,65.86
2018-05-01T22:23:40.690Z,65.80
2018-05-01T22:26:08.423Z,65.38
2018-05-01T22:28:36.482Z,65.27
2018-05-01T22:31:04.053Z,64.58
2018-05-01T22:33:31.757Z,64.49
2018-05-01T22:35:59.648Z,64.10
2018-05-01T22:38:27.433Z,63.89
2018-05-01T22:40:55.293Z,63.73
2018-05-01T22:43:22.875Z,63.45
2018-05-01T22:45:50.677Z,63.37
2018-05-01T22:48:18.414Z,63.31
2018-05-01T22:50:46.344Z,63.33
2018-05-01T22:53:13.963Z,63.29
2018-05-01T22:55:41.588Z,63.29
2018-05-01T22:58:09.141Z,63.13
2018-05-01T23:00:37.228Z,63.30
2018-05-01T23:03:04.809Z,63.62
2018-05-01T23:05:32.353Z,64.09
2018-05-01T23:08:00.015Z,64.07
2018-05-01T23:10:27.573Z,64.27
2018-05-01T23:12:55.387Z,64.31
2018-05-01T23:15:22.939Z,64.14
2018-05-01T23:17:50.567Z,64.24
2018-05-01T23:20:18.340Z,64.35
2018-05-01T23:22:45.884Z,64.40
2018-05-01T23:25:13.751Z,64.46
2018-05-01T23:27:41.614Z,64.39
2018-05-01T23:30:09.277Z,64.56
2018-05-01T23:32:36.851Z,64.23
2018-05-01T23:35:04.625Z,64.04
2018-05-01T23:37:32.172Z,64.16
2018-05-01T23:39:59.769Z,64.54
2018-05-01T23:42:27.434Z,64.47
2018-05-01T23:44:55.021Z,64.38
2018-05-01T23:47:22.670Z,64.54
2018-05-01T23:49:50.520Z,64.39
2018-05-01T23:52:18.099Z,64.16
2018-05-01T23:54:45.666Z,63.91
2018-05-01T23:57:13.264Z,63.90
2018-05-01T23:59:41.042Z,64.12
